Aviation Digital Data Service (ADDS)

Output produced by METARs form (2323 UTC 15 February 2019)
found at http://www.aviationweather.gov/metar/data/
 
Forecast for: FKYS (YAOUNDE , CM)
Text: TAF FKYS 152300Z 1600/1624 VRB05KT 4000 HZ BKN006
Forecast period: 0000 to 0800 UTC 16 February 2019
Forecast type: FROM: standard forecast or significant change
Winds: variable direction winds at 6 MPH (5 knots; 2.6 m/s)
Visibility: 2.49 miles (4.01 km)
Ceiling: 600 feet AGL
Clouds: broken clouds at 600 feet AGL
Weather: HZ  (haze)
Text: TEMPO 1603/1607 2000 BR
Forecast period: 0300 to 0700 UTC 16 February 2019
Forecast type: TEMPORARY: The following changes expected for less than half the time period
Visibility: 1.24 miles (2.00 km)
Ceiling: unknown
Clouds: missing
Weather: BR  (mist)
Text: BECMG 1608/1611 SCT016
Forecast period: 0800 UTC 16 February 2019 to 0000 UTC 17 February 2019
Forecast type: BECOMING: Conditions expected to become as follows by 1100 UTC 16 February 2019
Winds: variable direction winds at 6 MPH (5 knots; 2.6 m/s)
Visibility: 2.49 miles (4.01 km)
Ceiling: at least 12,000 feet AGL
Clouds: scattered clouds at 1600 feet AGL
Weather: HZ  (haze)